Time;durP1;ratioP1;P1;durP2;ratioP2;P2;SDS_P1;SDS_P2;PMS_P1;PMS_P2;Temp;Humidity;BMP_temperature;BMP_pressure;BME280_temperature;BME280_humidity;BME280_pressure;Samples;Min_cycle;Max_cycle;Signal;HPM_P1;HPM_P2
2022/02/21 00:02:11;;;;;;;10.05;2.05;;;2.60;99.90;;;;;;6309779;22;20014;-95
2022/02/21 00:04:46;;;;;;;15.55;2.42;;;2.60;99.90;;;;;;6309433;22;19992;-94
2022/02/21 00:07:13;;;;;;;21.55;3.22;;;2.60;99.90;;;;;;6333425;22;20021;-93
2022/02/21 00:09:39;;;;;;;14.35;2.58;;;2.50;99.90;;;;;;6308658;22;19996;-93
2022/02/21 00:12:09;;;;;;;17.80;2.45;;;2.60;99.90;;;;;;6308987;22;20062;-94
2022/02/21 00:14:37;;;;;;;15.32;2.17;;;2.50;99.90;;;;;;6309433;22;20009;-94
2022/02/21 00:17:06;;;;;;;16.58;5.13;;;2.60;99.90;;;;;;6282282;22;20003;-94
2022/02/21 00:22:41;;;;;;;23.08;2.38;;;2.70;99.90;;;;;;6325847;22;20034;-95
2022/02/21 00:25:26;;;;;;;16.25;2.35;;;2.70;99.90;;;;;;6308762;22;20038;-95
2022/02/21 00:27:58;;;;;;;14.65;2.78;;;2.60;99.90;;;;;;6274118;23;20012;-94
2022/02/21 00:44:49;;;;;;;24.60;2.70;;;2.50;99.90;;;;;;6311727;22;20010;-94
2022/02/21 00:47:41;;;;;;;9.75;1.60;;;2.50;99.90;;;;;;6307285;22;20086;-94
2022/02/21 00:50:14;;;;;;;11.45;2.70;;;2.60;99.90;;;;;;6334416;22;20017;-94
2022/02/21 00:52:58;;;;;;;15.38;2.78;;;2.60;99.90;;;;;;6335641;22;20035;-95
2022/02/21 01:01:18;;;;;;;14.43;2.67;;;2.70;99.90;;;;;;6368395;22;20017;-95
2022/02/21 01:03:47;;;;;;;15.25;2.20;;;2.70;99.90;;;;;;6317033;22;20019;-95
2022/02/21 01:06:17;;;;;;;11.80;3.00;;;2.80;99.90;;;;;;6340264;22;20008;-95
2022/02/21 01:08:47;;;;;;;19.67;2.50;;;2.80;99.90;;;;;;6341808;22;19995;-94
2022/02/21 01:11:13;;;;;;;17.55;3.30;;;2.90;99.90;;;;;;6341942;22;19983;-95
2022/02/21 01:13:41;;;;;;;10.60;2.45;;;2.90;99.90;;;;;;6341796;22;20012;-95
2022/02/21 01:16:07;;;;;;;24.40;2.80;;;2.90;99.90;;;;;;6341656;22;19991;-95
2022/02/21 01:18:36;;;;;;;11.73;1.58;;;2.90;99.90;;;;;;6340483;22;20001;-95
2022/02/21 01:21:03;;;;;;;12.82;3.28;;;2.90;99.90;;;;;;6339833;22;20010;-94
2022/02/21 01:23:29;;;;;;;15.40;1.98;;;2.90;99.90;;;;;;6339566;22;20010;-96
2022/02/21 01:25:55;;;;;;;15.75;2.28;;;3.00;99.90;;;;;;6339844;22;19991;-95
2022/02/21 01:28:22;;;;;;;16.83;2.40;;;3.00;99.90;;;;;;6339620;22;20039;-93
2022/02/21 01:30:48;;;;;;;27.67;3.10;;;3.00;99.90;;;;;;6339769;22;20018;-94
2022/02/21 01:33:14;;;;;;;10.88;2.70;;;3.00;99.90;;;;;;6340494;22;20002;-94
2022/02/21 01:35:39;;;;;;;17.65;2.85;;;3.00;99.90;;;;;;6341439;22;20023;-94
2022/02/21 01:38:05;;;;;;;18.77;2.47;;;3.00;99.90;;;;;;6341507;22;20020;-94
2022/02/21 01:40:36;;;;;;;12.02;2.40;;;3.00;99.90;;;;;;6341780;22;20005;-93
2022/02/21 01:43:02;;;;;;;25.25;3.67;;;3.00;99.90;;;;;;6341539;22;20233;-94
2022/02/21 01:45:28;;;;;;;20.65;3.58;;;3.00;99.90;;;;;;6341256;22;19995;-93
2022/02/21 01:47:54;;;;;;;24.48;3.15;;;3.00;99.90;;;;;;6316038;22;19991;-94
2022/02/21 01:50:21;;;;;;;18.88;2.28;;;3.00;99.90;;;;;;6341325;22;19995;-94
2022/02/21 01:52:48;;;;;;;11.10;1.83;;;3.10;99.90;;;;;;6341542;22;20003;-93
2022/02/21 01:55:14;;;;;;;18.60;2.70;;;3.10;99.90;;;;;;6368203;22;19997;-93
2022/02/21 01:57:42;;;;;;;18.10;3.03;;;3.10;99.90;;;;;;6341470;22;19991;-93
2022/02/21 02:00:08;;;;;;;19.48;2.88;;;3.10;99.90;;;;;;6335917;22;20003;-94
2022/02/21 02:02:35;;;;;;;18.40;2.50;;;3.10;99.90;;;;;;6336188;22;19996;-94
2022/02/21 02:05:03;;;;;;;23.23;3.20;;;3.10;99.90;;;;;;6336160;22;20025;-94
2022/02/21 02:07:29;;;;;;;12.70;2.03;;;3.10;99.90;;;;;;6336703;22;19995;-94
2022/02/21 02:09:59;;;;;;;31.13;3.80;;;3.20;99.90;;;;;;6336443;22;20004;-93
2022/02/21 02:12:25;;;;;;;24.40;4.15;;;3.20;99.90;;;;;;6336178;22;20003;-93
2022/02/21 02:14:55;;;;;;;17.80;2.95;;;3.20;99.90;;;;;;6336321;22;20481;-94
2022/02/21 02:17:25;;;;;;;5.63;1.42;;;3.20;99.90;;;;;;6334290;22;19995;-94
2022/02/21 02:19:51;;;;;;;18.85;2.78;;;3.20;99.90;;;;;;6336086;22;20000;-94
2022/02/21 02:22:18;;;;;;;21.75;3.10;;;3.30;99.90;;;;;;6335976;22;19999;-94
2022/02/21 02:24:46;;;;;;;25.85;3.40;;;3.30;99.90;;;;;;6336113;22;19996;-93
2022/02/21 02:27:12;;;;;;;20.48;3.08;;;3.30;99.90;;;;;;6335918;22;19991;-95
2022/02/21 02:29:41;;;;;;;22.02;2.95;;;3.30;99.90;;;;;;6335850;22;20011;-93
2022/02/21 02:32:08;;;;;;;15.25;1.98;;;3.30;99.90;;;;;;6335972;22;20033;-93
2022/02/21 02:34:35;;;;;;;17.52;2.15;;;3.30;99.90;;;;;;6336039;22;19987;-94
2022/02/21 02:37:01;;;;;;;17.17;2.28;;;3.30;99.90;;;;;;6336187;22;20074;-95
2022/02/21 02:39:27;;;;;;;18.67;2.50;;;3.30;99.90;;;;;;6335988;22;20003;-93
2022/02/21 02:41:54;;;;;;;18.42;2.55;;;3.40;99.90;;;;;;6335185;22;20003;-94
2022/02/21 02:44:21;;;;;;;18.40;2.40;;;3.40;99.90;;;;;;6334717;22;19987;-93
2022/02/21 02:46:47;;;;;;;27.38;3.40;;;3.40;99.90;;;;;;6335693;22;20001;-93
2022/02/21 02:49:12;;;;;;;11.00;2.35;;;3.40;99.90;;;;;;6334337;22;20009;-94
2022/02/21 02:51:38;;;;;;;25.67;3.10;;;3.40;99.90;;;;;;6335752;22;20034;-92
2022/02/21 02:54:08;;;;;;;14.43;2.50;;;3.30;99.90;;;;;;6335559;22;20007;-94
2022/02/21 02:56:39;;;;;;;17.95;2.10;;;3.30;99.90;;;;;;6335264;22;19991;-94
2022/02/21 02:59:05;;;;;;;28.75;3.65;;;3.30;99.90;;;;;;6334727;22;20027;-95
2022/02/21 03:01:31;;;;;;;9.30;2.13;;;3.30;99.90;;;;;;6334068;22;20011;-93
2022/02/21 03:03:56;;;;;;;20.42;2.50;;;3.30;99.90;;;;;;6334594;22;20058;-95
2022/02/21 03:06:22;;;;;;;26.48;4.13;;;3.30;99.90;;;;;;6334800;22;20011;-94
2022/02/21 03:08:48;;;;;;;26.15;2.88;;;3.30;99.90;;;;;;6334913;22;20019;-93
2022/02/21 03:11:14;;;;;;;17.40;2.80;;;3.30;99.90;;;;;;6335319;22;20007;-95
2022/02/21 03:13:40;;;;;;;23.75;2.95;;;3.20;99.90;;;;;;6334635;22;19991;-94
2022/02/21 03:16:06;;;;;;;15.30;2.75;;;3.20;99.90;;;;;;6334374;22;20002;-95
2022/02/21 03:18:32;;;;;;;22.15;3.00;;;3.20;99.90;;;;;;6334071;22;20002;-94
2022/02/21 03:20:58;;;;;;;29.70;3.83;;;3.10;99.90;;;;;;6334714;22;20023;-93
2022/02/21 03:23:24;;;;;;;27.23;3.40;;;3.10;99.90;;;;;;6334631;22;19996;-93
2022/02/21 03:25:50;;;;;;;24.95;3.92;;;3.00;99.90;;;;;;6335781;22;20011;-92
2022/02/21 03:28:17;;;;;;;30.63;4.53;;;3.00;99.90;;;;;;6336261;22;19991;-93
2022/02/21 03:30:42;;;;;;;14.85;2.97;;;3.10;99.90;;;;;;6336123;22;20055;-93
2022/02/21 03:33:08;;;;;;;12.73;2.15;;;3.10;99.90;;;;;;6335414;22;20007;-94
2022/02/21 03:35:35;;;;;;;23.65;2.63;;;3.10;99.90;;;;;;6334510;22;19996;-93
2022/02/21 03:38:01;;;;;;;20.77;2.63;;;3.10;99.90;;;;;;6335278;22;19991;-95
2022/02/21 03:40:26;;;;;;;22.35;3.60;;;3.20;99.90;;;;;;6335259;22;20083;-94
2022/02/21 03:42:53;;;;;;;12.98;2.80;;;3.20;99.90;;;;;;6335449;22;19995;-94
2022/02/21 03:45:20;;;;;;;19.88;3.40;;;3.10;99.90;;;;;;6335046;22;19991;-93
2022/02/21 03:47:46;;;;;;;28.92;4.03;;;3.20;99.90;;;;;;6335360;22;19996;-92
2022/02/21 03:50:12;;;;;;;18.58;2.92;;;3.20;99.90;;;;;;6335114;22;19988;-94
2022/02/21 03:52:38;;;;;;;25.85;3.30;;;3.20;99.90;;;;;;6334776;22;20078;-92
2022/02/21 03:55:04;;;;;;;20.13;4.38;;;3.30;99.90;;;;;;6334990;22;19992;-94
2022/02/21 03:57:30;;;;;;;29.58;4.20;;;3.30;99.90;;;;;;6334407;22;20002;-96
2022/02/21 03:59:56;;;;;;;28.58;4.00;;;3.40;99.90;;;;;;6338030;22;19995;-94
2022/02/21 04:02:21;;;;;;;25.98;3.47;;;3.40;99.90;;;;;;6340232;22;20020;-95
2022/02/21 04:04:47;;;;;;;17.65;3.38;;;3.40;99.90;;;;;;6340044;22;20002;-94
2022/02/21 04:07:13;;;;;;;19.23;2.40;;;3.50;99.90;;;;;;6340195;22;20001;-94
2022/02/21 04:09:39;;;;;;;12.35;3.65;;;3.60;99.90;;;;;;6339934;22;20012;-94
2022/02/21 04:12:07;;;;;;;20.83;3.38;;;3.50;99.90;;;;;;6339990;22;20007;-94
2022/02/21 04:14:33;;;;;;;31.05;4.18;;;3.60;99.90;;;;;;6340030;22;20001;-94
2022/02/21 04:16:59;;;;;;;10.30;2.72;;;3.60;99.90;;;;;;6339892;22;19994;-95
2022/02/21 04:19:25;;;;;;;30.60;3.55;;;3.60;99.90;;;;;;6340150;22;19991;-94
2022/02/21 04:21:51;;;;;;;29.98;4.50;;;3.70;99.90;;;;;;6340121;22;19991;-94
2022/02/21 04:24:17;;;;;;;19.33;3.78;;;3.70;99.90;;;;;;6340041;22;20059;-93
2022/02/21 04:26:43;;;;;;;19.67;2.55;;;3.80;99.90;;;;;;6340054;22;20069;-94
2022/02/21 04:29:10;;;;;;;29.40;3.63;;;3.80;99.90;;;;;;6340053;22;20016;-93
2022/02/21 04:31:36;;;;;;;22.85;3.78;;;3.80;99.90;;;;;;6339907;22;20099;-95
2022/02/21 04:34:02;;;;;;;25.88;2.47;;;3.90;99.90;;;;;;6340414;22;19999;-95
2022/02/21 04:36:32;;;;;;;19.08;4.32;;;3.90;99.90;;;;;;6315100;22;20014;-95
2022/02/21 04:39:00;;;;;;;20.73;2.35;;;4.00;99.90;;;;;;6340485;22;19987;-94
2022/02/21 04:41:26;;;;;;;21.20;3.50;;;4.00;99.90;;;;;;6340669;22;20028;-93
2022/02/21 04:43:53;;;;;;;25.13;3.05;;;4.00;99.90;;;;;;6340677;22;19992;-94
2022/02/21 04:46:20;;;;;;;27.42;3.58;;;4.00;99.90;;;;;;6365535;22;20028;-94
2022/02/21 04:48:46;;;;;;;21.85;3.50;;;4.00;99.90;;;;;;6339964;22;20021;-95
2022/02/21 04:51:12;;;;;;;31.10;4.78;;;4.00;99.90;;;;;;6340046;22;20003;-95
2022/02/21 04:53:38;;;;;;;17.83;2.40;;;4.10;99.90;;;;;;6339885;22;20066;-95
2022/02/21 04:56:04;;;;;;;35.22;4.50;;;4.10;99.90;;;;;;6338876;22;19997;-95
2022/02/21 04:58:30;;;;;;;20.95;3.80;;;4.10;99.90;;;;;;6339660;22;19998;-94
2022/02/21 05:00:55;;;;;;;23.60;3.45;;;4.10;99.90;;;;;;6339381;22;20006;-95
2022/02/21 05:03:22;;;;;;;26.60;3.25;;;4.10;99.90;;;;;;6339585;22;20008;-93
2022/02/21 05:05:48;;;;;;;22.33;3.35;;;4.10;99.90;;;;;;6339628;22;20014;-93
2022/02/21 05:08:14;;;;;;;25.85;3.05;;;4.10;99.90;;;;;;6339421;22;19991;-92
2022/02/21 05:10:39;;;;;;;26.38;3.65;;;4.20;99.90;;;;;;6339864;22;19991;-93
2022/02/21 05:13:05;;;;;;;28.65;4.13;;;4.30;99.90;;;;;;6339772;22;20017;-93
2022/02/21 05:15:31;;;;;;;18.23;3.25;;;4.30;99.90;;;;;;6339731;22;19998;-95
2022/02/21 05:17:57;;;;;;;12.38;1.83;;;4.30;99.90;;;;;;6339644;22;20010;-91
2022/02/21 05:20:23;;;;;;;18.05;3.40;;;4.40;99.90;;;;;;6339535;22;19999;-94
2022/02/21 05:22:48;;;;;;;25.00;4.07;;;4.40;99.90;;;;;;6339293;22;19991;-95
2022/02/21 05:25:14;;;;;;;31.55;4.30;;;4.50;99.90;;;;;;6339666;22;20016;-93
2022/02/21 05:27:41;;;;;;;14.40;3.40;;;4.50;99.90;;;;;;6339521;22;19995;-93
2022/02/21 05:30:09;;;;;;;23.48;3.30;;;4.50;99.90;;;;;;6339548;22;19995;-93
2022/02/21 05:32:35;;;;;;;22.42;3.45;;;4.50;99.90;;;;;;6339407;22;20007;-91
2022/02/21 05:35:01;;;;;;;20.23;2.97;;;4.50;99.90;;;;;;6339714;22;20026;-93
2022/02/21 05:37:27;;;;;;;19.83;3.50;;;4.50;99.90;;;;;;6339306;22;20062;-96
2022/02/21 05:39:53;;;;;;;16.75;2.97;;;4.50;99.90;;;;;;6338953;22;20020;-93
2022/02/21 05:42:18;;;;;;;22.35;3.35;;;4.60;99.90;;;;;;6339400;22;20002;-94
2022/02/21 05:44:44;;;;;;;17.88;3.10;;;4.50;99.90;;;;;;6339404;22;20021;-94
2022/02/21 05:47:10;;;;;;;21.33;2.67;;;4.50;99.90;;;;;;6339781;22;20021;-92
2022/02/21 05:49:36;;;;;;;30.42;3.70;;;4.60;99.90;;;;;;6339197;22;20086;-93
2022/02/21 05:52:03;;;;;;;20.58;3.50;;;4.60;99.90;;;;;;6338843;22;20067;-93
2022/02/21 05:54:29;;;;;;;32.20;2.88;;;4.60;99.90;;;;;;6339446;22;19987;-94
2022/02/21 05:56:56;;;;;;;25.42;4.15;;;4.70;99.90;;;;;;6339162;22;20062;-92
2022/02/21 05:59:22;;;;;;;32.00;4.07;;;4.70;99.90;;;;;;6366665;22;20049;-92
2022/02/21 06:01:48;;;;;;;24.58;3.55;;;4.80;99.90;;;;;;6339784;22;20015;-93
2022/02/21 06:04:14;;;;;;;26.60;4.43;;;4.80;99.90;;;;;;6340023;22;20029;-92
2022/02/21 06:06:39;;;;;;;22.60;3.20;;;4.90;99.90;;;;;;6340634;22;20018;-93
2022/02/21 06:09:06;;;;;;;18.77;3.67;;;4.90;99.90;;;;;;6340050;22;20055;-94
2022/02/21 06:11:32;;;;;;;27.73;4.20;;;4.90;99.90;;;;;;6339874;22;20019;-92
2022/02/21 06:13:58;;;;;;;20.85;3.40;;;5.00;99.90;;;;;;6340064;22;19995;-93
2022/02/21 06:16:23;;;;;;;22.88;3.47;;;5.00;99.90;;;;;;6339763;22;20058;-93
2022/02/21 06:18:49;;;;;;;22.42;4.10;;;5.00;99.90;;;;;;6338387;22;20003;-93
2022/02/21 06:21:15;;;;;;;18.58;3.85;;;5.00;99.90;;;;;;6340605;22;20010;-96
2022/02/21 06:23:41;;;;;;;19.05;2.47;;;5.00;99.90;;;;;;6341745;22;20008;-92
2022/02/21 06:26:06;;;;;;;28.75;4.43;;;5.10;99.90;;;;;;6341415;22;20093;-92
2022/02/21 06:28:32;;;;;;;18.08;3.50;;;5.10;99.90;;;;;;6340809;22;19991;-92
2022/02/21 06:30:59;;;;;;;14.57;3.65;;;5.20;99.90;;;;;;6341052;22;20066;-94
2022/02/21 06:33:25;;;;;;;29.50;6.40;;;5.20;99.90;;;;;;6340649;22;19999;-94
2022/02/21 06:35:51;;;;;;;25.67;3.75;;;5.20;99.90;;;;;;6337849;22;20007;-94
2022/02/21 06:38:18;;;;;;;21.17;3.50;;;5.30;99.90;;;;;;6336421;22;20014;-94
2022/02/21 06:40:45;;;;;;;23.80;5.72;;;5.20;99.90;;;;;;6333768;22;20019;-95
2022/02/21 06:43:11;;;;;;;20.05;3.45;;;5.30;99.90;;;;;;6333183;22;19990;-93
2022/02/21 06:45:45;;;;;;;23.08;3.03;;;5.30;99.90;;;;;;6333148;22;20006;-95
2022/02/21 06:48:11;;;;;;;28.83;3.45;;;5.20;99.90;;;;;;6336731;22;20021;-92
2022/02/21 06:50:37;;;;;;;27.48;3.70;;;5.20;99.90;;;;;;6340471;22;20014;-96
2022/02/21 06:53:03;;;;;;;33.45;4.10;;;5.20;99.90;;;;;;6340927;22;19999;-92
2022/02/21 06:55:29;;;;;;;37.55;3.60;;;5.30;99.90;;;;;;6341637;22;19989;-93
2022/02/21 06:57:55;;;;;;;14.70;2.80;;;5.30;99.90;;;;;;6368261;22;20014;-94
2022/02/21 07:00:20;;;;;;;27.73;4.03;;;5.30;99.90;;;;;;6341355;22;20003;-93
2022/02/21 07:02:46;;;;;;;21.70;3.63;;;5.30;99.90;;;;;;6341541;22;20001;-93
2022/02/21 07:05:13;;;;;;;23.77;3.53;;;5.30;99.90;;;;;;6341634;22;19999;-94
2022/02/21 07:07:38;;;;;;;25.95;5.10;;;5.40;99.90;;;;;;6341501;22;20007;-95
2022/02/21 07:10:05;;;;;;;25.40;3.47;;;5.50;99.90;;;;;;6341119;22;20002;-93
2022/02/21 07:12:31;;;;;;;37.88;4.05;;;5.50;99.90;;;;;;6341394;22;20019;-93
2022/02/21 07:14:57;;;;;;;27.52;3.20;;;5.60;99.90;;;;;;6367924;22;19999;-94
2022/02/21 07:17:24;;;;;;;15.48;3.78;;;5.60;99.90;;;;;;6341450;22;20010;-94
2022/02/21 07:19:50;;;;;;;35.78;4.88;;;5.60;99.90;;;;;;6341704;22;20011;-94
2022/02/21 07:22:16;;;;;;;32.35;4.13;;;5.60;99.90;;;;;;6341666;22;19999;-92
2022/02/21 07:24:42;;;;;;;18.45;4.43;;;5.70;99.90;;;;;;6341592;22;20021;-94
2022/02/21 07:27:08;;;;;;;18.95;3.85;;;5.70;99.90;;;;;;6341440;22;20315;-94
2022/02/21 07:29:36;;;;;;;16.10;2.63;;;5.70;99.90;;;;;;6341491;22;19991;-93
2022/02/21 07:32:06;;;;;;;17.35;3.95;;;5.70;99.90;;;;;;6341151;22;20009;-94
2022/02/21 07:34:33;;;;;;;16.23;3.42;;;5.70;99.90;;;;;;6341366;22;20009;-94
2022/02/21 07:36:58;;;;;;;21.50;3.05;;;5.70;99.90;;;;;;6341173;22;20066;-94
2022/02/21 07:39:24;;;;;;;19.80;2.17;;;5.70;99.90;;;;;;6341376;22;19998;-94
2022/02/21 07:41:50;;;;;;;16.88;2.60;;;5.70;99.90;;;;;;6339394;22;20029;-95
2022/02/21 07:44:16;;;;;;;16.45;1.90;;;5.70;99.90;;;;;;6340899;22;19991;-94
2022/02/21 07:46:42;;;;;;;8.18;1.98;;;5.70;99.90;;;;;;6340795;22;19991;-93
2022/02/21 07:49:08;;;;;;;16.08;3.25;;;5.70;99.90;;;;;;6338428;22;20040;-94
2022/02/21 07:51:34;;;;;;;10.32;1.88;;;5.70;99.90;;;;;;6339780;22;20912;-94
2022/02/21 07:54:00;;;;;;;14.70;2.70;;;5.70;99.90;;;;;;6339722;22;20014;-93
2022/02/21 07:56:26;;;;;;;12.27;3.38;;;5.70;99.90;;;;;;6340385;22;20014;-93
2022/02/21 07:58:51;;;;;;;16.00;1.90;;;5.70;99.90;;;;;;6340635;22;19998;-94
2022/02/21 08:01:17;;;;;;;10.55;1.67;;;5.80;99.90;;;;;;6340526;22;20271;-93
2022/02/21 08:03:43;;;;;;;6.18;1.40;;;5.80;99.90;;;;;;6340464;22;19995;-95
2022/02/21 08:06:10;;;;;;;6.22;1.40;;;5.90;99.90;;;;;;6340588;22;19994;-94
2022/02/21 08:08:39;;;;;;;7.95;1.50;;;5.90;99.90;;;;;;6340087;22;20014;-92
2022/02/21 08:11:07;;;;;;;11.07;2.03;;;5.90;99.90;;;;;;6340020;22;20006;-94
2022/02/21 08:13:33;;;;;;;16.90;2.80;;;6.00;99.90;;;;;;6340095;22;19987;-94
2022/02/21 08:15:58;;;;;;;12.45;2.35;;;6.10;99.90;;;;;;6339765;22;20013;-94
2022/02/21 08:18:26;;;;;;;16.95;3.45;;;6.20;99.90;;;;;;6339709;22;20022;-94
2022/02/21 08:20:52;;;;;;;28.30;4.47;;;6.20;99.90;;;;;;6339521;22;20018;-93
2022/02/21 08:23:18;;;;;;;22.00;4.75;;;6.20;99.90;;;;;;6337790;22;19999;-94
2022/02/21 08:25:46;;;;;;;24.20;3.60;;;6.30;99.90;;;;;;6338645;22;19999;-94
2022/02/21 08:28:16;;;;;;;27.85;3.40;;;6.40;99.90;;;;;;6339084;22;20311;-96
2022/02/21 08:30:45;;;;;;;;;;;6.50;99.90;;;;;;6366972;22;20326;-95
2022/02/21 08:33:11;;;;;;;14.52;2.50;;;6.60;99.90;;;;;;6339523;22;19906;-94
2022/02/21 08:35:40;;;;;;;30.73;3.53;;;6.60;99.90;;;;;;6339427;22;20018;-94
2022/02/21 08:38:05;;;;;;;36.60;4.80;;;6.60;99.90;;;;;;6339573;22;20005;-93
2022/02/21 08:40:34;;;;;;;18.75;3.70;;;6.70;99.90;;;;;;6339867;22;19987;-94
2022/02/21 08:43:01;;;;;;;23.05;2.90;;;6.70;99.90;;;;;;6339832;22;19991;-95
2022/02/21 08:45:27;;;;;;;30.65;5.38;;;6.80;99.90;;;;;;6367005;22;20007;-94
2022/02/21 08:47:53;;;;;;;28.80;4.50;;;6.80;99.90;;;;;;6339757;22;19998;-94
2022/02/21 08:50:19;;;;;;;26.55;4.53;;;6.80;99.90;;;;;;6339740;22;19997;-94
2022/02/21 08:52:44;;;;;;;26.73;5.68;;;6.80;99.90;;;;;;6339382;22;20013;-94
2022/02/21 08:55:19;;;;;;;35.83;4.13;;;6.80;99.90;;;;;;6339398;22;20010;-96
2022/02/21 08:57:47;;;;;;;30.02;4.22;;;6.80;99.90;;;;;;6339139;22;19990;-96
2022/02/21 09:00:14;;;;;;;23.63;3.65;;;6.70;99.90;;;;;;6339238;22;19999;-93
2022/02/21 09:02:40;;;;;;;22.48;3.80;;;6.80;99.90;;;;;;6339194;22;19998;-94
2022/02/21 09:05:06;;;;;;;19.02;3.40;;;6.80;99.90;;;;;;6339146;22;20066;-94
2022/02/21 09:07:32;;;;;;;19.73;2.78;;;6.80;99.90;;;;;;6338498;22;20201;-93
2022/02/21 09:09:58;;;;;;;32.05;3.95;;;6.90;99.90;;;;;;6339013;22;19999;-92
2022/02/21 09:12:24;;;;;;;20.65;3.65;;;6.90;99.90;;;;;;6339041;22;20015;-94
2022/02/21 09:14:51;;;;;;;40.35;5.78;;;6.90;99.90;;;;;;6339161;22;19990;-94
2022/02/21 09:17:18;;;;;;;28.58;4.40;;;6.90;99.90;;;;;;6338572;22;20003;-93
2022/02/21 09:19:44;;;;;;;33.90;5.32;;;6.90;99.90;;;;;;6339118;22;20004;-95
2022/02/21 09:22:11;;;;;;;39.92;5.18;;;6.90;99.90;;;;;;6339392;22;19999;-94
2022/02/21 09:24:41;;;;;;;31.35;5.22;;;7.00;99.90;;;;;;6339676;22;19991;-93
2022/02/21 09:27:06;;;;;;;26.43;4.10;;;7.00;99.90;;;;;;6340035;22;20029;-94
2022/02/21 09:29:35;;;;;;;22.83;3.42;;;7.00;99.90;;;;;;6339898;22;20225;-92
2022/02/21 09:32:01;;;;;;;28.55;4.90;;;7.00;99.90;;;;;;6314187;22;20037;-92
2022/02/21 09:34:26;;;;;;;30.75;4.38;;;7.00;99.90;;;;;;6339167;22;20007;-93
2022/02/21 09:36:52;;;;;;;26.60;4.68;;;7.00;99.90;;;;;;6339232;22;20021;-93
2022/02/21 09:39:20;;;;;;;25.73;3.83;;;7.00;99.90;;;;;;6339547;22;19987;-91
2022/02/21 09:41:46;;;;;;;18.67;2.33;;;7.00;99.90;;;;;;6339414;22;20015;-94
2022/02/21 09:44:12;;;;;;;12.77;2.00;;;7.00;99.90;;;;;;6339305;22;19994;-91
2022/02/21 09:46:41;;;;;;;13.45;1.65;;;7.00;99.90;;;;;;6340323;22;20029;-91
2022/02/21 09:49:08;;;;;;;9.10;1.38;;;7.00;99.90;;;;;;6340106;22;20041;-92
2022/02/21 09:51:34;;;;;;;12.98;2.25;;;6.90;99.90;;;;;;6339876;22;20006;-95
2022/02/21 09:54:00;;;;;;;11.05;2.08;;;7.00;99.90;;;;;;6339895;22;19987;-94
2022/02/21 09:56:26;;;;;;;12.45;2.35;;;7.00;99.90;;;;;;6316054;22;20001;-93
2022/02/21 09:58:55;;;;;;;15.52;2.65;;;7.00;99.90;;;;;;6341257;22;19999;-94
2022/02/21 10:01:27;;;;;;;7.68;1.95;;;7.10;99.90;;;;;;6316106;22;20093;-93
2022/02/21 10:03:57;;;;;;;10.50;1.95;;;7.10;99.90;;;;;;6341227;22;20036;-95
2022/02/21 10:06:30;;;;;;;13.18;3.05;;;7.00;99.90;;;;;;6341151;22;20029;-94
2022/02/21 10:09:09;;;;;;;18.30;2.45;;;7.00;99.90;;;;;;6341561;22;20042;-95
2022/02/21 10:11:46;;;;;;;14.50;2.90;;;7.00;99.90;;;;;;6341703;22;20030;-94
2022/02/21 10:14:13;;;;;;;18.75;2.67;;;7.00;99.90;;;;;;6342033;22;19983;-94
2022/02/21 10:16:42;;;;;;;12.07;1.95;;;7.00;99.90;;;;;;6341972;22;20025;-94
2022/02/21 10:19:36;;;;;;;17.35;3.42;;;7.10;99.90;;;;;;6341357;22;20007;-91
2022/02/21 10:22:10;;;;;;;15.35;2.28;;;7.10;99.90;;;;;;6332321;22;19987;-92
2022/02/21 10:24:42;;;;;;;22.90;2.60;;;7.20;99.90;;;;;;6368032;22;19998;-94
2022/02/21 10:27:13;;;;;;;13.10;2.13;;;7.30;99.90;;;;;;6361138;22;20022;-94
2022/02/21 10:30:16;;;;;;;19.63;2.80;;;7.40;99.90;;;;;;6332379;22;19994;-95
2022/02/21 10:32:49;;;;;;;17.40;3.15;;;7.60;99.90;;;;;;6324507;22;20025;-96
2022/02/21 10:35:23;;;;;;;22.00;3.63;;;7.70;99.90;;;;;;6336315;22;19994;-95
2022/02/21 14:33:31;;;;;;;39.75;4.82;;;9.20;99.90;;;;;;5115784;28;20121;-94
2022/02/21 14:35:57;;;;;;;32.33;6.03;;;9.40;99.90;;;;;;5098103;28;20012;-94
2022/02/21 14:38:23;;;;;;;32.90;5.57;;;9.70;99.90;;;;;;5094195;28;20035;-94
2022/02/21 14:40:50;;;;;;;33.40;3.92;;;9.90;99.90;;;;;;5086116;28;20033;-92
2022/02/21 14:43:16;;;;;;;36.92;5.07;;;10.10;99.90;;;;;;5083950;28;20045;-95
2022/02/21 14:45:42;;;;;;;37.55;4.20;;;10.20;99.90;;;;;;5080566;28;20039;-96
2022/02/21 14:48:08;;;;;;;47.95;5.65;;;10.30;99.90;;;;;;5086350;28;20072;-96
2022/02/21 14:50:35;;;;;;;29.83;4.30;;;10.20;99.90;;;;;;5079573;28;20039;-96
2022/02/21 14:53:02;;;;;;;25.08;3.95;;;10.20;99.90;;;;;;5080707;28;20394;-94
2022/02/21 14:55:27;;;;;;;29.70;3.85;;;10.10;99.90;;;;;;5079834;28;20070;-95
2022/02/21 14:57:56;;;;;;;25.30;5.30;;;9.90;99.90;;;;;;5076402;28;20029;-95
2022/02/21 15:00:24;;;;;;;31.90;5.00;;;9.80;99.90;;;;;;5058944;28;20024;-96
2022/02/21 15:02:49;;;;;;;25.60;4.18;;;9.70;99.90;;;;;;5058041;28;20036;-95
2022/02/21 15:05:15;;;;;;;23.90;4.78;;;9.80;99.90;;;;;;5065389;28;20020;-95
2022/02/21 15:07:41;;;;;;;25.58;4.20;;;10.00;99.90;;;;;;5062688;28;20053;-96
2022/02/21 15:10:08;;;;;;;27.85;4.18;;;10.20;99.90;;;;;;5060297;28;20025;-95
2022/02/21 15:12:34;;;;;;;30.50;3.90;;;10.40;99.90;;;;;;5056951;28;20032;-95
2022/02/21 15:15:00;;;;;;;22.10;3.88;;;10.60;99.90;;;;;;5055985;28;20036;-94
2022/02/21 15:17:26;;;;;;;16.58;3.60;;;10.70;99.90;;;;;;5057453;28;20033;-95
2022/02/21 15:19:55;;;;;;;29.13;3.72;;;10.80;99.90;;;;;;5055481;28;20025;-95
2022/02/21 15:22:20;;;;;;;18.27;4.55;;;10.80;99.90;;;;;;5056364;28;20032;-95
2022/02/21 15:24:47;;;;;;;22.30;4.03;;;10.60;99.90;;;;;;5056726;28;20020;-95
2022/02/21 15:27:13;;;;;;;29.05;4.55;;;10.50;99.90;;;;;;5048582;28;20032;-94
2022/02/21 15:29:38;;;;;;;27.38;4.38;;;10.40;99.90;;;;;;5045278;28;20029;-95
2022/02/21 15:32:05;;;;;;;29.90;4.15;;;10.30;99.90;;;;;;5041627;28;20044;-94
2022/02/21 15:34:30;;;;;;;28.58;3.92;;;10.20;99.90;;;;;;5042718;28;20017;-95
2022/02/21 15:36:58;;;;;;;39.00;5.05;;;10.10;99.90;;;;;;5044289;28;20032;-95
2022/02/21 15:39:26;;;;;;;35.97;4.38;;;10.10;99.90;;;;;;5044045;28;20028;-96
2022/02/21 15:41:52;;;;;;;21.15;3.30;;;10.20;99.90;;;;;;5050520;28;20486;-94
2022/02/21 15:44:17;;;;;;;18.73;3.50;;;10.20;99.90;;;;;;5039590;28;20060;-95
2022/02/21 15:46:44;;;;;;;28.35;3.60;;;10.20;99.90;;;;;;5030759;28;20075;-94
2022/02/21 15:49:12;;;;;;;24.67;3.83;;;10.20;99.90;;;;;;5032595;28;20045;-95
2022/02/21 15:51:39;;;;;;;27.52;4.18;;;10.20;99.90;;;;;;5031718;28;20021;-94
2022/02/21 15:54:05;;;;;;;15.68;3.00;;;10.10;99.90;;;;;;5032453;28;20036;-95
2022/02/21 15:56:30;;;;;;;33.35;4.18;;;10.10;99.90;;;;;;5037859;28;20032;-95
2022/02/21 15:58:56;;;;;;;22.05;3.63;;;10.20;99.90;;;;;;5042027;28;20025;-95
2022/02/21 16:01:22;;;;;;;17.98;2.42;;;10.40;99.90;;;;;;5028879;28;20029;-94
2022/02/21 16:03:48;;;;;;;19.15;3.22;;;10.30;99.90;;;;;;5032494;28;20420;-95
2022/02/21 16:06:19;;;;;;;17.25;3.65;;;10.20;99.90;;;;;;5033061;28;20044;-94
2022/02/21 16:08:50;;;;;;;20.92;2.92;;;10.00;99.90;;;;;;5033050;28;20029;-94
2022/02/21 16:11:17;;;;;;;21.25;3.05;;;9.90;99.90;;;;;;5052809;28;20113;-95
2022/02/21 16:13:43;;;;;;;19.02;2.88;;;9.80;99.90;;;;;;5032543;28;20024;-95
2022/02/21 16:16:09;;;;;;;28.50;3.70;;;9.60;99.90;;;;;;5031535;28;20021;-95
2022/02/21 16:18:36;;;;;;;17.10;3.30;;;9.50;99.90;;;;;;5029917;28;20021;-95
2022/02/21 16:21:03;;;;;;;25.67;3.60;;;9.30;99.90;;;;;;5031135;28;20025;-96
2022/02/21 16:23:29;;;;;;;23.02;3.40;;;9.10;99.90;;;;;;5037067;28;20545;-95
2022/02/21 16:25:55;;;;;;;32.97;3.97;;;8.90;99.90;;;;;;5030300;28;20079;-94
2022/02/21 16:28:22;;;;;;;31.50;3.58;;;8.70;99.90;;;;;;5030704;28;20123;-92
2022/02/21 16:30:47;;;;;;;31.35;4.13;;;8.60;99.90;;;;;;5034477;28;20017;-96
2022/02/21 16:33:13;;;;;;;20.80;3.55;;;8.60;99.90;;;;;;5040797;28;20084;-95
2022/02/21 16:35:40;;;;;;;29.55;5.90;;;8.50;99.90;;;;;;5046010;28;20071;-94
2022/02/21 16:38:06;;;;;;;27.77;4.90;;;8.60;99.90;;;;;;5041865;28;20086;-94
2022/02/21 16:40:32;;;;;;;24.75;3.17;;;8.60;99.90;;;;;;5032192;28;20029;-96
2022/02/21 16:42:58;;;;;;;22.90;3.92;;;8.80;99.90;;;;;;5032447;28;20033;-95
2022/02/21 16:45:24;;;;;;;22.70;3.35;;;8.70;99.90;;;;;;5020040;28;20039;-94
2022/02/21 16:47:53;;;;;;;28.95;4.00;;;8.60;99.90;;;;;;5034951;28;20096;-95
2022/02/21 16:50:19;;;;;;;22.70;3.10;;;8.50;99.90;;;;;;5050947;28;20063;-95
2022/02/21 16:52:48;;;;;;;22.65;3.13;;;8.30;99.90;;;;;;5049529;28;20029;-95
2022/02/21 16:55:14;;;;;;;21.77;3.38;;;8.20;99.90;;;;;;5048936;28;20032;-94
2022/02/21 16:57:40;;;;;;;24.90;4.50;;;8.10;99.90;;;;;;5045002;28;20029;-95
2022/02/21 17:00:15;;;;;;;27.50;5.68;;;8.00;99.90;;;;;;5044934;28;20095;-95
2022/02/21 17:02:43;;;;;;;27.52;4.50;;;7.90;99.90;;;;;;5047110;28;20470;-94
2022/02/21 17:05:10;;;;;;;33.83;4.72;;;7.80;99.90;;;;;;5045810;28;20055;-95